sensor_id;sensor_type;location;lat;lon;timestamp;pressure;altitude;pressure_sealevel;temperature
41940;BMP180;23057;48.554;14.454;2023-03-12T00:00:56;93160.00;;;6.30
41940;BMP180;23057;48.554;14.454;2023-03-12T00:03:27;93164.00;;;6.30
41940;BMP180;23057;48.554;14.454;2023-03-12T00:05:57;93156.00;;;6.20
41940;BMP180;23057;48.554;14.454;2023-03-12T00:08:28;93174.00;;;6.20
41940;BMP180;23057;48.554;14.454;2023-03-12T00:10:59;93164.00;;;6.10
41940;BMP180;23057;48.554;14.454;2023-03-12T00:13:30;93159.00;;;6.10
41940;BMP180;23057;48.554;14.454;2023-03-12T00:16:09;93158.00;;;6.00
41940;BMP180;23057;48.554;14.454;2023-03-12T00:18:42;93162.00;;;6.00
41940;BMP180;23057;48.554;14.454;2023-03-12T00:21:14;93176.00;;;6.00
41940;BMP180;23057;48.554;14.454;2023-03-12T00:23:48;93168.00;;;6.00
41940;BMP180;23057;48.554;14.454;2023-03-12T00:26:20;93185.00;;;5.90
41940;BMP180;23057;48.554;14.454;2023-03-12T00:28:51;93188.00;;;5.90
41940;BMP180;23057;48.554;14.454;2023-03-12T00:31:26;93185.00;;;5.90
41940;BMP180;23057;48.554;14.454;2023-03-12T00:34:00;93179.00;;;5.90
41940;BMP180;23057;48.554;14.454;2023-03-12T00:36:32;93189.00;;;5.80
41940;BMP180;23057;48.554;14.454;2023-03-12T00:39:03;93188.00;;;5.70
41940;BMP180;23057;48.554;14.454;2023-03-12T00:41:34;93182.00;;;5.60
41940;BMP180;23057;48.554;14.454;2023-03-12T00:44:05;93191.00;;;5.60
41940;BMP180;23057;48.554;14.454;2023-03-12T00:46:36;93198.00;;;5.50
41940;BMP180;23057;48.554;14.454;2023-03-12T00:49:06;93191.00;;;5.50
41940;BMP180;23057;48.554;14.454;2023-03-12T00:51:37;93198.00;;;5.40
41940;BMP180;23057;48.554;14.454;2023-03-12T00:54:08;93193.00;;;5.40
41940;BMP180;23057;48.554;14.454;2023-03-12T00:56:39;93190.00;;;5.40
41940;BMP180;23057;48.554;14.454;2023-03-12T00:59:10;93187.00;;;5.40
41940;BMP180;23057;48.554;14.454;2023-03-12T01:01:41;93188.00;;;5.40
41940;BMP180;23057;48.554;14.454;2023-03-12T01:04:13;93190.00;;;5.40
41940;BMP180;23057;48.554;14.454;2023-03-12T01:06:43;93184.00;;;5.40
41940;BMP180;23057;48.554;14.454;2023-03-12T01:09:14;93177.00;;;5.40
41940;BMP180;23057;48.554;14.454;2023-03-12T01:11:45;93173.00;;;5.40
41940;BMP180;23057;48.554;14.454;2023-03-12T01:14:16;93176.00;;;5.40
41940;BMP180;23057;48.554;14.454;2023-03-12T01:16:46;93179.00;;;5.40
41940;BMP180;23057;48.554;14.454;2023-03-12T01:19:17;93180.00;;;5.40
41940;BMP180;23057;48.554;14.454;2023-03-12T01:21:48;93183.00;;;5.30
41940;BMP180;23057;48.554;14.454;2023-03-12T01:24:19;93189.00;;;5.30
41940;BMP180;23057;48.554;14.454;2023-03-12T01:26:49;93193.00;;;5.30
41940;BMP180;23057;48.554;14.454;2023-03-12T01:29:20;93196.00;;;5.30
41940;BMP180;23057;48.554;14.454;2023-03-12T01:31:51;93191.00;;;5.30
41940;BMP180;23057;48.554;14.454;2023-03-12T01:34:22;93201.00;;;5.20
41940;BMP180;23057;48.554;14.454;2023-03-12T01:36:52;93194.00;;;5.20
41940;BMP180;23057;48.554;14.454;2023-03-12T01:39:24;93192.00;;;5.10
41940;BMP180;23057;48.554;14.454;2023-03-12T01:41:55;93189.00;;;5.10
41940;BMP180;23057;48.554;14.454;2023-03-12T01:44:26;93181.00;;;5.00
41940;BMP180;23057;48.554;14.454;2023-03-12T01:46:57;93180.00;;;5.00
41940;BMP180;23057;48.554;14.454;2023-03-12T01:49:31;93182.00;;;5.00
41940;BMP180;23057;48.554;14.454;2023-03-12T01:55:02;93184.00;;;4.90
41940;BMP180;23057;48.554;14.454;2023-03-12T01:57:38;93183.00;;;4.90
41940;BMP180;23057;48.554;14.454;2023-03-12T02:00:24;93192.00;;;4.90
41940;BMP180;23057;48.554;14.454;2023-03-12T02:03:03;93183.00;;;4.80
41940;BMP180;23057;48.554;14.454;2023-03-12T02:05:45;93194.00;;;4.80
41940;BMP180;23057;48.554;14.454;2023-03-12T02:08:22;93184.00;;;4.70
41940;BMP180;23057;48.554;14.454;2023-03-12T02:10:53;93188.00;;;4.70
41940;BMP180;23057;48.554;14.454;2023-03-12T02:13:24;93193.00;;;4.70
41940;BMP180;23057;48.554;14.454;2023-03-12T02:15:55;93197.00;;;4.60
41940;BMP180;23057;48.554;14.454;2023-03-12T02:18:26;93190.00;;;4.60
41940;BMP180;23057;48.554;14.454;2023-03-12T02:26:37;93191.00;;;4.50
41940;BMP180;23057;48.554;14.454;2023-03-12T02:29:10;93194.00;;;4.50
41940;BMP180;23057;48.554;14.454;2023-03-12T02:31:47;93199.00;;;4.50
41940;BMP180;23057;48.554;14.454;2023-03-12T02:34:21;93207.00;;;4.50
41940;BMP180;23057;48.554;14.454;2023-03-12T02:36:52;93201.00;;;4.50
41940;BMP180;23057;48.554;14.454;2023-03-12T02:39:23;93210.00;;;4.50
41940;BMP180;23057;48.554;14.454;2023-03-12T02:41:55;93212.00;;;4.50
41940;BMP180;23057;48.554;14.454;2023-03-12T02:44:32;93207.00;;;4.50
41940;BMP180;23057;48.554;14.454;2023-03-12T02:47:04;93227.00;;;4.50
41940;BMP180;23057;48.554;14.454;2023-03-12T02:49:35;93226.00;;;4.40
41940;BMP180;23057;48.554;14.454;2023-03-12T02:52:05;93226.00;;;4.30
41940;BMP180;23057;48.554;14.454;2023-03-12T02:54:36;93219.00;;;4.20
41940;BMP180;23057;48.554;14.454;2023-03-12T02:57:07;93235.00;;;4.30
41940;BMP180;23057;48.554;14.454;2023-03-12T02:59:38;93218.00;;;4.30
41940;BMP180;23057;48.554;14.454;2023-03-12T03:02:08;93228.00;;;4.30
41940;BMP180;23057;48.554;14.454;2023-03-12T03:04:41;93236.00;;;4.30
41940;BMP180;23057;48.554;14.454;2023-03-12T03:07:12;93238.00;;;4.30
41940;BMP180;23057;48.554;14.454;2023-03-12T03:09:44;93237.00;;;4.30
41940;BMP180;23057;48.554;14.454;2023-03-12T03:12:15;93233.00;;;4.20
41940;BMP180;23057;48.554;14.454;2023-03-12T03:14:45;93235.00;;;4.20
41940;BMP180;23057;48.554;14.454;2023-03-12T03:17:16;93230.00;;;4.20
41940;BMP180;23057;48.554;14.454;2023-03-12T03:19:47;93236.00;;;4.10
41940;BMP180;23057;48.554;14.454;2023-03-12T03:22:19;93236.00;;;4.00
41940;BMP180;23057;48.554;14.454;2023-03-12T03:24:54;93238.00;;;3.90
41940;BMP180;23057;48.554;14.454;2023-03-12T03:27:24;93248.00;;;3.80
41940;BMP180;23057;48.554;14.454;2023-03-12T03:29:55;93245.00;;;3.70
41940;BMP180;23057;48.554;14.454;2023-03-12T03:32:26;93240.00;;;3.60
41940;BMP180;23057;48.554;14.454;2023-03-12T03:34:57;93254.00;;;3.60
41940;BMP180;23057;48.554;14.454;2023-03-12T03:37:27;93254.00;;;3.60
41940;BMP180;23057;48.554;14.454;2023-03-12T03:39:58;93264.00;;;3.50
41940;BMP180;23057;48.554;14.454;2023-03-12T03:42:29;93251.00;;;3.50
41940;BMP180;23057;48.554;14.454;2023-03-12T03:45:00;93248.00;;;3.60
41940;BMP180;23057;48.554;14.454;2023-03-12T03:47:30;93254.00;;;3.60
41940;BMP180;23057;48.554;14.454;2023-03-12T03:50:02;93252.00;;;3.60
41940;BMP180;23057;48.554;14.454;2023-03-12T03:52:34;93261.00;;;3.60
41940;BMP180;23057;48.554;14.454;2023-03-12T03:55:05;93268.00;;;3.50
41940;BMP180;23057;48.554;14.454;2023-03-12T03:57:36;93273.00;;;3.50
41940;BMP180;23057;48.554;14.454;2023-03-12T04:00:07;93276.00;;;3.50
41940;BMP180;23057;48.554;14.454;2023-03-12T04:02:43;93264.00;;;3.50
41940;BMP180;23057;48.554;14.454;2023-03-12T04:05:14;93272.00;;;3.50
41940;BMP180;23057;48.554;14.454;2023-03-12T04:07:51;93278.00;;;3.60
41940;BMP180;23057;48.554;14.454;2023-03-12T04:10:23;93284.00;;;3.60
41940;BMP180;23057;48.554;14.454;2023-03-12T04:12:54;93286.00;;;3.60
41940;BMP180;23057;48.554;14.454;2023-03-12T04:15:25;93309.00;;;3.70
41940;BMP180;23057;48.554;14.454;2023-03-12T04:17:56;93308.00;;;3.60
41940;BMP180;23057;48.554;14.454;2023-03-12T04:20:27;93301.00;;;3.60
41940;BMP180;23057;48.554;14.454;2023-03-12T04:22:57;93298.00;;;3.70
41940;BMP180;23057;48.554;14.454;2023-03-12T04:25:30;93312.00;;;3.70
41940;BMP180;23057;48.554;14.454;2023-03-12T04:28:01;93305.00;;;3.60
41940;BMP180;23057;48.554;14.454;2023-03-12T04:30:32;93313.00;;;3.70
41940;BMP180;23057;48.554;14.454;2023-03-12T04:33:04;93305.00;;;3.60
41940;BMP180;23057;48.554;14.454;2023-03-12T04:35:35;93302.00;;;3.60
41940;BMP180;23057;48.554;14.454;2023-03-12T04:38:06;93295.00;;;3.60
41940;BMP180;23057;48.554;14.454;2023-03-12T04:40:36;93301.00;;;3.60
41940;BMP180;23057;48.554;14.454;2023-03-12T04:43:07;93289.00;;;3.50
41940;BMP180;23057;48.554;14.454;2023-03-12T04:45:38;93292.00;;;3.40
41940;BMP180;23057;48.554;14.454;2023-03-12T04:48:08;93284.00;;;3.40
41940;BMP180;23057;48.554;14.454;2023-03-12T04:50:39;93292.00;;;3.30
41940;BMP180;23057;48.554;14.454;2023-03-12T04:53:10;93287.00;;;3.20
41940;BMP180;23057;48.554;14.454;2023-03-12T04:55:41;93296.00;;;3.20
41940;BMP180;23057;48.554;14.454;2023-03-12T04:58:12;93294.00;;;3.20
41940;BMP180;23057;48.554;14.454;2023-03-12T05:00:43;93303.00;;;3.20
41940;BMP180;23057;48.554;14.454;2023-03-12T05:03:15;93305.00;;;3.30
41940;BMP180;23057;48.554;14.454;2023-03-12T05:05:46;93304.00;;;3.30
41940;BMP180;23057;48.554;14.454;2023-03-12T05:08:17;93306.00;;;3.30
41940;BMP180;23057;48.554;14.454;2023-03-12T05:10:47;93305.00;;;3.30
41940;BMP180;23057;48.554;14.454;2023-03-12T05:13:20;93308.00;;;3.30
41940;BMP180;23057;48.554;14.454;2023-03-12T05:15:52;93322.00;;;3.30
41940;BMP180;23057;48.554;14.454;2023-03-12T05:18:23;93318.00;;;3.30
41940;BMP180;23057;48.554;14.454;2023-03-12T05:21:06;93319.00;;;3.20
41940;BMP180;23057;48.554;14.454;2023-03-12T05:23:46;93321.00;;;3.20
41940;BMP180;23057;48.554;14.454;2023-03-12T05:26:22;93308.00;;;3.20
41940;BMP180;23057;48.554;14.454;2023-03-12T05:28:55;93324.00;;;3.20
41940;BMP180;23057;48.554;14.454;2023-03-12T05:31:26;93325.00;;;3.20
41940;BMP180;23057;48.554;14.454;2023-03-12T05:34:03;93327.00;;;3.20
41940;BMP180;23057;48.554;14.454;2023-03-12T05:36:34;93314.00;;;3.30
41940;BMP180;23057;48.554;14.454;2023-03-12T05:39:05;93324.00;;;3.30
41940;BMP180;23057;48.554;14.454;2023-03-12T05:41:36;93326.00;;;3.30
41940;BMP180;23057;48.554;14.454;2023-03-12T05:44:10;93325.00;;;3.30
41940;BMP180;23057;48.554;14.454;2023-03-12T05:46:43;93329.00;;;3.40
41940;BMP180;23057;48.554;14.454;2023-03-12T05:49:13;93345.00;;;3.50
41940;BMP180;23057;48.554;14.454;2023-03-12T05:51:49;93331.00;;;3.60
41940;BMP180;23057;48.554;14.454;2023-03-12T05:54:20;93339.00;;;3.80
41940;BMP180;23057;48.554;14.454;2023-03-12T05:56:50;93353.00;;;4.10
41940;BMP180;23057;48.554;14.454;2023-03-12T05:59:21;93338.00;;;4.40
41940;BMP180;23057;48.554;14.454;2023-03-12T06:01:52;93343.00;;;4.70
41940;BMP180;23057;48.554;14.454;2023-03-12T06:04:23;93354.00;;;5.00
41940;BMP180;23057;48.554;14.454;2023-03-12T06:06:54;93348.00;;;5.10
41940;BMP180;23057;48.554;14.454;2023-03-12T06:09:25;93347.00;;;5.30
41940;BMP180;23057;48.554;14.454;2023-03-12T06:11:56;93354.00;;;5.40
41940;BMP180;23057;48.554;14.454;2023-03-12T06:14:26;93359.00;;;5.40
41940;BMP180;23057;48.554;14.454;2023-03-12T06:16:57;93362.00;;;5.40
41940;BMP180;23057;48.554;14.454;2023-03-12T06:19:28;93358.00;;;5.50
41940;BMP180;23057;48.554;14.454;2023-03-12T06:21:59;93353.00;;;5.50
41940;BMP180;23057;48.554;14.454;2023-03-12T06:24:29;93358.00;;;5.60
41940;BMP180;23057;48.554;14.454;2023-03-12T06:27:00;93362.00;;;5.70
41940;BMP180;23057;48.554;14.454;2023-03-12T06:29:31;93359.00;;;5.70
41940;BMP180;23057;48.554;14.454;2023-03-12T06:32:02;93361.00;;;5.70
41940;BMP180;23057;48.554;14.454;2023-03-12T06:34:33;93363.00;;;5.70
41940;BMP180;23057;48.554;14.454;2023-03-12T06:37:04;93358.00;;;5.80
41940;BMP180;23057;48.554;14.454;2023-03-12T06:39:35;93361.00;;;5.80
41940;BMP180;23057;48.554;14.454;2023-03-12T06:42:06;93356.00;;;5.90
41940;BMP180;23057;48.554;14.454;2023-03-12T06:44:37;93355.00;;;6.00
41940;BMP180;23057;48.554;14.454;2023-03-12T06:47:08;93363.00;;;6.00
41940;BMP180;23057;48.554;14.454;2023-03-12T06:49:38;93367.00;;;6.10
41940;BMP180;23057;48.554;14.454;2023-03-12T06:52:09;93371.00;;;6.10
41940;BMP180;23057;48.554;14.454;2023-03-12T06:54:40;93364.00;;;6.20
41940;BMP180;23057;48.554;14.454;2023-03-12T06:57:11;93356.00;;;6.40
41940;BMP180;23057;48.554;14.454;2023-03-12T06:59:42;93369.00;;;6.60
41940;BMP180;23057;48.554;14.454;2023-03-12T07:02:12;93360.00;;;6.90
41940;BMP180;23057;48.554;14.454;2023-03-12T07:04:43;93357.00;;;7.00
41940;BMP180;23057;48.554;14.454;2023-03-12T07:07:14;93355.00;;;6.90
41940;BMP180;23057;48.554;14.454;2023-03-12T07:09:46;93355.00;;;6.80
41940;BMP180;23057;48.554;14.454;2023-03-12T07:12:17;93360.00;;;6.80
41940;BMP180;23057;48.554;14.454;2023-03-12T07:14:47;93359.00;;;6.80
41940;BMP180;23057;48.554;14.454;2023-03-12T07:17:18;93354.00;;;6.80
41940;BMP180;23057;48.554;14.454;2023-03-12T07:19:49;93350.00;;;6.90
41940;BMP180;23057;48.554;14.454;2023-03-12T07:22:19;93350.00;;;7.00
41940;BMP180;23057;48.554;14.454;2023-03-12T07:24:50;93366.00;;;7.10
41940;BMP180;23057;48.554;14.454;2023-03-12T07:27:21;93360.00;;;7.10
41940;BMP180;23057;48.554;14.454;2023-03-12T07:29:52;93348.00;;;7.20
41940;BMP180;23057;48.554;14.454;2023-03-12T07:32:23;93355.00;;;7.30
41940;BMP180;23057;48.554;14.454;2023-03-12T07:34:53;93356.00;;;7.40
41940;BMP180;23057;48.554;14.454;2023-03-12T07:37:24;93359.00;;;7.50
41940;BMP180;23057;48.554;14.454;2023-03-12T07:39:55;93357.00;;;7.60
41940;BMP180;23057;48.554;14.454;2023-03-12T07:42:26;93362.00;;;7.70
41940;BMP180;23057;48.554;14.454;2023-03-12T07:44:57;93353.00;;;7.80
41940;BMP180;23057;48.554;14.454;2023-03-12T07:47:27;93357.00;;;7.90
41940;BMP180;23057;48.554;14.454;2023-03-12T07:49:58;93365.00;;;8.00
41940;BMP180;23057;48.554;14.454;2023-03-12T07:52:31;93359.00;;;8.00
41940;BMP180;23057;48.554;14.454;2023-03-12T07:55:02;93356.00;;;8.10
41940;BMP180;23057;48.554;14.454;2023-03-12T07:57:33;93363.00;;;8.30
41940;BMP180;23057;48.554;14.454;2023-03-12T08:00:05;93359.00;;;8.50
41940;BMP180;23057;48.554;14.454;2023-03-12T08:02:37;93375.00;;;8.60
41940;BMP180;23057;48.554;14.454;2023-03-12T08:05:08;93363.00;;;8.80
41940;BMP180;23057;48.554;14.454;2023-03-12T08:07:39;93369.00;;;8.90
41940;BMP180;23057;48.554;14.454;2023-03-12T08:10:10;93357.00;;;9.00
41940;BMP180;23057;48.554;14.454;2023-03-12T08:12:41;93369.00;;;9.10
41940;BMP180;23057;48.554;14.454;2023-03-12T08:15:13;93371.00;;;9.20
41940;BMP180;23057;48.554;14.454;2023-03-12T08:17:44;93360.00;;;9.20
41940;BMP180;23057;48.554;14.454;2023-03-12T08:20:15;93358.00;;;9.30
41940;BMP180;23057;48.554;14.454;2023-03-12T08:22:46;93363.00;;;9.30
41940;BMP180;23057;48.554;14.454;2023-03-12T08:25:17;93368.00;;;9.40
41940;BMP180;23057;48.554;14.454;2023-03-12T08:27:50;93386.00;;;9.60
41940;BMP180;23057;48.554;14.454;2023-03-12T08:30:21;93388.00;;;9.60
41940;BMP180;23057;48.554;14.454;2023-03-12T08:32:52;93382.00;;;9.60
41940;BMP180;23057;48.554;14.454;2023-03-12T08:35:22;93377.00;;;9.70
41940;BMP180;23057;48.554;14.454;2023-03-12T08:37:53;93378.00;;;9.90
41940;BMP180;23057;48.554;14.454;2023-03-12T08:40:26;93386.00;;;10.10
41940;BMP180;23057;48.554;14.454;2023-03-12T08:42:57;93386.00;;;10.40
41940;BMP180;23057;48.554;14.454;2023-03-12T08:45:28;93398.00;;;10.60
41940;BMP180;23057;48.554;14.454;2023-03-12T08:47:59;93400.00;;;10.80
41940;BMP180;23057;48.554;14.454;2023-03-12T08:50:30;93399.00;;;10.90
41940;BMP180;23057;48.554;14.454;2023-03-12T08:53:01;93399.00;;;10.90
41940;BMP180;23057;48.554;14.454;2023-03-12T08:55:32;93400.00;;;10.90
41940;BMP180;23057;48.554;14.454;2023-03-12T08:58:03;93397.00;;;11.00
41940;BMP180;23057;48.554;14.454;2023-03-12T09:00:33;93395.00;;;10.90
41940;BMP180;23057;48.554;14.454;2023-03-12T09:03:04;93407.00;;;10.90
41940;BMP180;23057;48.554;14.454;2023-03-12T09:05:35;93389.00;;;11.00
41940;BMP180;23057;48.554;14.454;2023-03-12T09:08:06;93391.00;;;11.00
41940;BMP180;23057;48.554;14.454;2023-03-12T09:10:37;93396.00;;;11.00
41940;BMP180;23057;48.554;14.454;2023-03-12T09:13:08;93399.00;;;11.10
41940;BMP180;23057;48.554;14.454;2023-03-12T09:15:39;93397.00;;;11.20
41940;BMP180;23057;48.554;14.454;2023-03-12T09:18:10;93399.00;;;11.30
41940;BMP180;23057;48.554;14.454;2023-03-12T09:20:41;93387.00;;;11.40
41940;BMP180;23057;48.554;14.454;2023-03-12T09:23:12;93402.00;;;11.50
41940;BMP180;23057;48.554;14.454;2023-03-12T09:25:46;93399.00;;;11.60
41940;BMP180;23057;48.554;14.454;2023-03-12T09:28:18;93385.00;;;11.70
41940;BMP180;23057;48.554;14.454;2023-03-12T09:30:49;93388.00;;;11.90
41940;BMP180;23057;48.554;14.454;2023-03-12T09:33:20;93387.00;;;11.90
41940;BMP180;23057;48.554;14.454;2023-03-12T09:35:58;93394.00;;;11.80
41940;BMP180;23057;48.554;14.454;2023-03-12T09:38:29;93393.00;;;11.80
41940;BMP180;23057;48.554;14.454;2023-03-12T09:41:03;93389.00;;;11.70
41940;BMP180;23057;48.554;14.454;2023-03-12T09:43:38;93387.00;;;11.50
41940;BMP180;23057;48.554;14.454;2023-03-12T09:46:21;93389.00;;;11.40
41940;BMP180;23057;48.554;14.454;2023-03-12T09:48:56;93384.00;;;11.40
41940;BMP180;23057;48.554;14.454;2023-03-12T09:51:39;93393.00;;;11.50
41940;BMP180;23057;48.554;14.454;2023-03-12T09:54:47;93392.00;;;11.60
41940;BMP180;23057;48.554;14.454;2023-03-12T09:57:26;93379.00;;;11.60
41940;BMP180;23057;48.554;14.454;2023-03-12T09:59:59;93386.00;;;11.60
41940;BMP180;23057;48.554;14.454;2023-03-12T10:05:45;93373.00;;;11.70
41940;BMP180;23057;48.554;14.454;2023-03-12T10:08:52;93390.00;;;11.90
41940;BMP180;23057;48.554;14.454;2023-03-12T10:12:08;93390.00;;;11.80
41940;BMP180;23057;48.554;14.454;2023-03-12T10:15:14;93374.00;;;11.80
41940;BMP180;23057;48.554;14.454;2023-03-12T10:18:17;93376.00;;;11.80
41940;BMP180;23057;48.554;14.454;2023-03-12T10:21:12;93385.00;;;12.00
41940;BMP180;23057;48.554;14.454;2023-03-12T10:24:10;93378.00;;;12.10
41940;BMP180;23057;48.554;14.454;2023-03-12T10:26:51;93375.00;;;12.10
41940;BMP180;23057;48.554;14.454;2023-03-12T10:29:25;93381.00;;;12.10
41940;BMP180;23057;48.554;14.454;2023-03-12T10:34:46;93377.00;;;12.30
41940;BMP180;23057;48.554;14.454;2023-03-12T10:40:27;93387.00;;;12.40
41940;BMP180;23057;48.554;14.454;2023-03-12T10:43:00;93386.00;;;12.30
41940;BMP180;23057;48.554;14.454;2023-03-12T10:45:43;93394.00;;;12.30
41940;BMP180;23057;48.554;14.454;2023-03-12T10:48:24;93382.00;;;12.30
41940;BMP180;23057;48.554;14.454;2023-03-12T10:51:04;93381.00;;;12.30
41940;BMP180;23057;48.554;14.454;2023-03-12T10:53:40;93384.00;;;12.40
41940;BMP180;23057;48.554;14.454;2023-03-12T10:56:16;93384.00;;;12.30
41940;BMP180;23057;48.554;14.454;2023-03-12T10:58:51;93381.00;;;12.30
41940;BMP180;23057;48.554;14.454;2023-03-12T11:01:25;93376.00;;;12.40
41940;BMP180;23057;48.554;14.454;2023-03-12T11:04:14;93385.00;;;12.50
41940;BMP180;23057;48.554;14.454;2023-03-12T11:07:17;93379.00;;;12.50
41940;BMP180;23057;48.554;14.454;2023-03-12T11:12:38;93372.00;;;12.20
41940;BMP180;23057;48.554;14.454;2023-03-12T11:15:42;93381.00;;;12.30
41940;BMP180;23057;48.554;14.454;2023-03-12T11:21:15;93388.00;;;12.30
41940;BMP180;23057;48.554;14.454;2023-03-12T11:26:36;93380.00;;;12.20
41940;BMP180;23057;48.554;14.454;2023-03-12T11:29:33;93382.00;;;12.10
41940;BMP180;23057;48.554;14.454;2023-03-12T11:32:35;93380.00;;;12.20
41940;BMP180;23057;48.554;14.454;2023-03-12T11:35:16;93376.00;;;12.10
41940;BMP180;23057;48.554;14.454;2023-03-12T11:37:53;93384.00;;;12.00
41940;BMP180;23057;48.554;14.454;2023-03-12T11:40:56;93384.00;;;11.80
41940;BMP180;23057;48.554;14.454;2023-03-12T11:55:04;93385.00;;;12.20
41940;BMP180;23057;48.554;14.454;2023-03-12T12:00:50;93395.00;;;12.40
41940;BMP180;23057;48.554;14.454;2023-03-12T12:06:39;93378.00;;;12.20
41940;BMP180;23057;48.554;14.454;2023-03-12T12:27:27;93383.00;;;12.00
41940;BMP180;23057;48.554;14.454;2023-03-12T12:36:33;93377.00;;;11.70
41940;BMP180;23057;48.554;14.454;2023-03-12T12:39:12;93380.00;;;11.70
41940;BMP180;23057;48.554;14.454;2023-03-12T12:41:53;93383.00;;;11.50
41940;BMP180;23057;48.554;14.454;2023-03-12T12:44:32;93386.00;;;11.40
41940;BMP180;23057;48.554;14.454;2023-03-12T12:47:09;93377.00;;;11.40
41940;BMP180;23057;48.554;14.454;2023-03-12T12:49:48;93382.00;;;11.30
41940;BMP180;23057;48.554;14.454;2023-03-12T12:52:24;93382.00;;;11.30
41940;BMP180;23057;48.554;14.454;2023-03-12T12:57:41;93373.00;;;11.30
41940;BMP180;23057;48.554;14.454;2023-03-12T13:03:13;93370.00;;;11.20
41940;BMP180;23057;48.554;14.454;2023-03-12T13:08:32;93372.00;;;11.30
41940;BMP180;23057;48.554;14.454;2023-03-12T13:13:51;93382.00;;;11.20
41940;BMP180;23057;48.554;14.454;2023-03-12T13:16:43;93391.00;;;11.10
41940;BMP180;23057;48.554;14.454;2023-03-12T13:22:08;93394.00;;;11.10
41940;BMP180;23057;48.554;14.454;2023-03-12T13:27:25;93391.00;;;11.10
41940;BMP180;23057;48.554;14.454;2023-03-12T13:30:52;93395.00;;;11.00
41940;BMP180;23057;48.554;14.454;2023-03-12T13:33:19;93391.00;;;10.90
41940;BMP180;23057;48.554;14.454;2023-03-12T13:36:20;93389.00;;;10.80
41940;BMP180;23057;48.554;14.454;2023-03-12T13:38:57;93397.00;;;10.90
41940;BMP180;23057;48.554;14.454;2023-03-12T13:49:51;93382.00;;;11.10
41940;BMP180;23057;48.554;14.454;2023-03-12T13:52:38;93376.00;;;11.20
41940;BMP180;23057;48.554;14.454;2023-03-12T13:55:26;93382.00;;;11.30
41940;BMP180;23057;48.554;14.454;2023-03-12T13:58:13;93376.00;;;11.40
41940;BMP180;23057;48.554;14.454;2023-03-12T14:01:01;93380.00;;;11.40
41940;BMP180;23057;48.554;14.454;2023-03-12T14:03:36;93379.00;;;11.50
41940;BMP180;23057;48.554;14.454;2023-03-12T14:06:20;93380.00;;;11.50
41940;BMP180;23057;48.554;14.454;2023-03-12T14:15:16;93376.00;;;11.20
41940;BMP180;23057;48.554;14.454;2023-03-12T14:17:56;93365.00;;;11.10
41940;BMP180;23057;48.554;14.454;2023-03-12T14:21:02;93358.00;;;11.10
41940;BMP180;23057;48.554;14.454;2023-03-12T14:23:43;93355.00;;;11.10
41940;BMP180;23057;48.554;14.454;2023-03-12T14:26:31;93351.00;;;11.00
41940;BMP180;23057;48.554;14.454;2023-03-12T14:29:25;93347.00;;;11.00
41940;BMP180;23057;48.554;14.454;2023-03-12T14:32:03;93351.00;;;11.00
41940;BMP180;23057;48.554;14.454;2023-03-12T14:34:48;93358.00;;;10.90
41940;BMP180;23057;48.554;14.454;2023-03-12T14:37:34;93352.00;;;10.90
41940;BMP180;23057;48.554;14.454;2023-03-12T14:40:22;93354.00;;;10.80
41940;BMP180;23057;48.554;14.454;2023-03-12T14:43:33;93342.00;;;10.80
41940;BMP180;23057;48.554;14.454;2023-03-12T14:46:13;93348.00;;;10.70
41940;BMP180;23057;48.554;14.454;2023-03-12T14:48:52;93344.00;;;10.70
41940;BMP180;23057;48.554;14.454;2023-03-12T14:51:29;93335.00;;;10.70
41940;BMP180;23057;48.554;14.454;2023-03-12T14:54:18;93344.00;;;10.80
41940;BMP180;23057;48.554;14.454;2023-03-12T14:56:52;93346.00;;;10.70
41940;BMP180;23057;48.554;14.454;2023-03-12T14:59:29;93348.00;;;10.60
41940;BMP180;23057;48.554;14.454;2023-03-12T15:02:12;93343.00;;;10.60
41940;BMP180;23057;48.554;14.454;2023-03-12T15:04:47;93345.00;;;10.70
41940;BMP180;23057;48.554;14.454;2023-03-12T15:07:32;93357.00;;;10.60
41940;BMP180;23057;48.554;14.454;2023-03-12T15:10:22;93347.00;;;10.60
41940;BMP180;23057;48.554;14.454;2023-03-12T15:12:58;93352.00;;;10.60
41940;BMP180;23057;48.554;14.454;2023-03-12T15:15:46;93353.00;;;10.60
41940;BMP180;23057;48.554;14.454;2023-03-12T15:18:25;93350.00;;;10.60
41940;BMP180;23057;48.554;14.454;2023-03-12T15:21:00;93354.00;;;10.50
41940;BMP180;23057;48.554;14.454;2023-03-12T15:23:35;93351.00;;;10.50
41940;BMP180;23057;48.554;14.454;2023-03-12T15:26:13;93359.00;;;10.40
41940;BMP180;23057;48.554;14.454;2023-03-12T15:29:00;93345.00;;;10.40
41940;BMP180;23057;48.554;14.454;2023-03-12T15:34:37;93331.00;;;10.40
41940;BMP180;23057;48.554;14.454;2023-03-12T15:37:20;93328.00;;;10.40
41940;BMP180;23057;48.554;14.454;2023-03-12T15:40:27;93335.00;;;10.40
41940;BMP180;23057;48.554;14.454;2023-03-12T15:42:58;93331.00;;;10.40
41940;BMP180;23057;48.554;14.454;2023-03-12T15:45:36;93322.00;;;10.40
41940;BMP180;23057;48.554;14.454;2023-03-12T15:48:31;93345.00;;;10.40
41940;BMP180;23057;48.554;14.454;2023-03-12T15:51:34;93333.00;;;10.40
41940;BMP180;23057;48.554;14.454;2023-03-12T15:56:43;93341.00;;;10.40
41940;BMP180;23057;48.554;14.454;2023-03-12T15:59:26;93336.00;;;10.40
41940;BMP180;23057;48.554;14.454;2023-03-12T16:01:57;93329.00;;;10.40
41940;BMP180;23057;48.554;14.454;2023-03-12T16:04:28;93339.00;;;10.40
41940;BMP180;23057;48.554;14.454;2023-03-12T16:06:59;93338.00;;;10.40
41940;BMP180;23057;48.554;14.454;2023-03-12T16:09:32;93353.00;;;10.30
41940;BMP180;23057;48.554;14.454;2023-03-12T16:12:04;93344.00;;;10.30
41940;BMP180;23057;48.554;14.454;2023-03-12T16:14:35;93339.00;;;10.20
41940;BMP180;23057;48.554;14.454;2023-03-12T16:17:13;93339.00;;;10.20
41940;BMP180;23057;48.554;14.454;2023-03-12T16:19:48;93347.00;;;10.20
41940;BMP180;23057;48.554;14.454;2023-03-12T16:22:19;93344.00;;;10.30
41940;BMP180;23057;48.554;14.454;2023-03-12T16:24:51;93342.00;;;10.20
41940;BMP180;23057;48.554;14.454;2023-03-12T16:27:22;93348.00;;;10.20
41940;BMP180;23057;48.554;14.454;2023-03-12T16:29:53;93352.00;;;10.20
41940;BMP180;23057;48.554;14.454;2023-03-12T16:32:23;93361.00;;;10.20
41940;BMP180;23057;48.554;14.454;2023-03-12T16:34:54;93365.00;;;10.20